Time;durP1;ratioP1;P1;durP2;ratioP2;P2;SDS_P1;SDS_P2;PMS_P1;PMS_P2;Temp;Humidity;BMP_temperature;BMP_pressure;BME280_temperature;BME280_humidity;BME280_pressure;Samples;Min_cycle;Max_cycle;Signal;HPM_P1;HPM_P2
2021/08/20 00:00:17;;;;;;;;;3.75;3.75;;;;;22.82;44.48;101196.50;5057036;28;46164;-52
2021/08/20 00:02:42;;;;;;;;;3.50;3.50;;;;;22.84;44.50;101205.19;5057358;28;45451;-54
2021/08/20 00:05:09;;;;;;;;;4.25;4.25;;;;;22.84;44.81;101200.75;5057853;28;45511;-51
2021/08/20 00:07:34;;;;;;;;;4.25;4.25;;;;;22.84;44.55;101200.75;5057457;28;45405;-47
2021/08/20 00:10:00;;;;;;;;;3.00;3.00;;;;;22.80;44.54;101201.88;5057063;28;45363;-57
2021/08/20 00:12:27;;;;;;;;;3.75;2.50;;;;;22.82;44.44;101207.09;5057027;28;45745;-52
2021/08/20 00:14:56;;;;;;;;;3.00;2.00;;;;;22.81;44.39;101208.88;5057136;28;45274;-51
2021/08/20 00:17:23;;;;;;;;;1.50;1.50;;;;;22.80;44.46;101203.69;5057447;28;45224;-49
2021/08/20 00:19:48;;;;;;;;;3.00;3.00;;;;;22.81;44.44;101206.22;5056806;28;46480;-51
2021/08/20 00:22:14;;;;;;;;;4.00;4.00;;;;;22.80;44.65;101196.59;5056892;28;45422;-50
2021/08/20 00:24:39;;;;;;;;;3.25;3.25;;;;;22.79;44.44;101194.03;5057331;28;45643;-53
2021/08/20 00:27:05;;;;;;;;;6.00;4.00;;;;;22.78;44.72;101198.47;5057164;28;45352;-52
2021/08/20 00:29:30;;;;;;;;;4.00;4.00;;;;;22.80;44.71;101199.22;5056711;28;45375;-56
2021/08/20 00:31:56;;;;;;;;;3.50;3.25;;;;;22.80;44.57;101193.94;5056822;28;45378;-53
2021/08/20 00:34:21;;;;;;;;;5.00;3.25;;;;;22.79;44.62;101200.16;5056845;28;45385;-53
2021/08/20 00:36:47;;;;;;;;;4.25;3.00;;;;;22.79;44.27;101196.69;5057131;28;45526;-53
2021/08/20 00:39:13;;;;;;;;;4.00;2.00;;;;;22.81;44.54;101185.06;5057019;28;45545;-50
2021/08/20 00:41:40;;;;;;;;;3.75;3.75;;;;;22.81;44.74;101189.53;5056975;28;45212;-50
2021/08/20 00:44:05;;;;;;;;;2.25;2.25;;;;;22.82;44.58;101199.16;5056822;28;45235;-46
2021/08/20 00:46:31;;;;;;;;;2.00;1.00;;;;;22.81;45.08;101200.09;5057003;28;45573;-53
2021/08/20 00:48:56;;;;;;;;;4.75;3.25;;;;;22.82;44.63;101196.50;5056460;28;45439;-52
2021/08/20 00:51:33;;;;;;;;;3.50;3.00;;;;;22.80;44.52;101193.94;5056555;28;45218;-55
2021/08/20 00:53:58;;;;;;;;;3.00;3.00;;;;;22.81;45.26;101190.38;5056575;28;45390;-53
2021/08/20 00:56:24;;;;;;;;;2.75;2.75;;;;;22.81;44.56;101190.38;5056913;28;45867;-52
2021/08/20 00:58:51;;;;;;;;;3.00;3.00;;;;;22.82;44.63;101185.94;5056272;28;46520;-52
2021/08/20 01:01:16;;;;;;;;;2.75;2.75;;;;;22.82;44.69;101186.78;5056553;28;45757;-55
2021/08/20 01:03:42;;;;;;;;;3.75;3.75;;;;;22.81;44.46;101178.97;5056402;28;45390;-53
2021/08/20 01:06:08;;;;;;;;;4.00;2.00;;;;;22.80;44.56;101180.72;5056779;28;45498;-53
2021/08/20 01:08:36;;;;;;;;;3.75;3.00;;;;;22.81;44.70;101178.97;5056178;28;46206;-51
2021/08/20 01:11:04;;;;;;;;;5.00;4.00;;;;;22.77;44.70;101175.63;5056359;28;45229;-49
2021/08/20 01:13:32;;;;;;;;;3.50;3.50;;;;;22.80;44.86;101182.53;5056589;28;45383;-53
2021/08/20 01:16:00;;;;;;;;;2.00;2.00;;;;;22.80;44.90;101177.25;5038469;28;45577;-54
2021/08/20 01:18:31;;;;;;;;;3.00;3.00;;;;;22.81;44.65;101171.03;5056093;28;46235;-51
2021/08/20 01:21:02;;;;;;;;;3.50;3.50;;;;;22.80;44.81;101172.81;5056270;28;45349;-47
2021/08/20 01:23:28;;;;;;;;;5.00;3.00;;;;;22.80;44.88;101175.44;5056444;28;45231;-51
2021/08/20 01:25:55;;;;;;;;;4.00;4.00;;;;;22.82;44.72;101175.38;5056486;28;45521;-53
2021/08/20 01:28:24;;;;;;;;;3.00;3.00;;;;;22.80;44.84;101172.81;5056035;28;46405;-49
2021/08/20 01:31:09;;;;;;;;;4.50;3.50;;;;;22.80;44.91;101170.16;5055950;28;45840;-53
2021/08/20 01:33:36;;;;;;;;;4.75;4.75;;;;;22.78;45.06;101171.19;5055572;28;45305;-55
2021/08/20 01:36:02;;;;;;;;;2.00;2.00;;;;;22.77;45.35;101167.69;5056416;28;45537;-51
2021/08/20 01:38:28;;;;;;;;;4.50;4.00;;;;;22.78;45.02;101172.03;5055921;28;46503;-54
2021/08/20 01:40:54;;;;;;;;;1.75;1.75;;;;;22.80;45.27;101171.97;5055973;28;45809;-48
2021/08/20 01:43:23;;;;;;;;;1.75;1.75;;;;;22.80;45.11;101164.88;5055952;28;45894;-47
2021/08/20 01:45:49;;;;;;;;;3.00;3.00;;;;;22.82;44.89;101164.81;5056305;28;45439;-53
2021/08/20 01:48:15;;;;;;;;;2.00;2.00;;;;;22.83;45.07;101167.34;5055809;28;45433;-47
2021/08/20 01:50:41;;;;;;;;;5.00;4.25;;;;;22.83;45.05;101164.69;5055800;28;45380;-52
2021/08/20 01:53:14;;;;;;;;;5.00;4.00;;;;;22.81;44.90;101157.81;5056006;28;45360;-50
2021/08/20 01:55:41;;;;;;;;;3.75;2.75;;;;;22.81;45.10;101166.59;5055980;28;45167;-49
2021/08/20 01:58:07;;;;;;;;;5.00;4.00;;;;;22.81;45.05;101155.16;5055768;28;45411;-55
2021/08/20 02:00:33;;;;;;;;;3.75;3.75;;;;;22.82;45.13;101155.06;5055543;28;45893;-52
2021/08/20 02:02:59;;;;;;;;;3.00;3.00;;;;;22.82;44.96;101155.06;5055748;28;45454;-49
2021/08/20 02:05:24;;;;;;;;;5.50;4.00;;;;;22.83;45.20;101148.84;5055858;28;45365;-48
2021/08/20 02:07:49;;;;;;;;;5.75;3.25;;;;;22.81;45.15;101142.78;5055573;28;46191;-46
2021/08/20 02:10:15;;;;;;;;;3.00;3.00;;;;;22.81;45.20;101124.28;5055696;28;45303;-45
2021/08/20 02:12:40;;;;;;;;;2.50;2.50;;;;;22.79;45.30;101126.19;5055586;28;45331;-46
2021/08/20 02:15:07;;;;;;;;;4.00;4.00;;;;;22.75;45.34;101121.16;5057239;28;45591;-48
2021/08/20 02:17:32;;;;;;;;;6.00;3.75;;;;;22.75;45.16;101124.69;5058853;28;47684;-53
2021/08/20 02:19:58;;;;;;;;;3.50;3.50;;;;;22.74;45.34;101130.91;5059101;28;45611;-52
2021/08/20 02:22:23;;;;;;;;;3.25;3.25;;;;;22.75;45.25;101143.19;5058930;28;45276;-46
2021/08/20 02:24:52;;;;;;;;;3.75;2.25;;;;;22.76;45.30;101149.28;5059124;28;45380;-47
2021/08/20 02:27:17;;;;;;;;;3.50;2.50;;;;;22.74;45.43;101144.13;5058978;28;47369;-49
2021/08/20 02:29:43;;;;;;;;;3.00;3.00;;;;;22.74;45.41;101146.75;5058817;28;45339;-49
2021/08/20 02:32:08;;;;;;;;;2.75;2.75;;;;;22.73;45.15;101142.41;5059130;28;45438;-51
2021/08/20 02:34:33;;;;;;;;;3.75;3.75;;;;;22.69;45.41;101140.88;5059077;28;45330;-49
2021/08/20 02:36:59;;;;;;;;;3.25;3.25;;;;;22.71;45.43;101144.28;5058628;28;46352;-48
2021/08/20 02:39:24;;;;;;;;;3.00;3.00;;;;;22.70;45.50;101147.88;5058691;28;45359;-46
2021/08/20 02:41:49;;;;;;;;;4.00;3.25;;;;;22.69;45.66;101151.44;5058831;28;45327;-48
2021/08/20 02:44:15;;;;;;;;;4.25;3.25;;;;;22.66;45.41;101144.56;5059104;28;45399;-49
2021/08/20 02:46:41;;;;;;;;;2.25;2.00;;;;;22.67;45.55;101150.69;5058381;28;47386;-52
2021/08/20 02:49:06;;;;;;;;;3.50;3.00;;;;;22.66;45.55;101143.69;5058338;28;45815;-54
2021/08/20 02:51:32;;;;;;;;;3.00;3.00;;;;;22.64;45.67;101146.44;5058646;28;45476;-51
2021/08/20 02:53:58;;;;;;;;;3.00;3.00;;;;;22.64;45.44;101154.38;5058605;28;45577;-50
2021/08/20 02:56:24;;;;;;;;;4.75;3.00;;;;;22.64;45.76;101149.09;5058167;28;46691;-57
2021/08/20 02:58:49;;;;;;;;;4.50;4.50;;;;;22.63;45.66;101151.84;5058524;28;45498;-56
2021/08/20 03:01:14;;;;;;;;;3.00;3.00;;;;;22.62;45.52;101158.06;5058519;28;45301;-53
2021/08/20 03:03:40;;;;;;;;;3.00;3.00;;;;;22.60;45.51;101147.56;5058623;28;45598;-57
2021/08/20 03:06:06;;;;;;;;;5.75;3.00;;;;;22.59;45.82;101145.03;5058082;28;46468;-49
2021/08/20 03:08:31;;;;;;;;;3.75;2.50;;;;;22.58;46.05;101148.59;5058066;28;45228;-51
2021/08/20 03:10:56;;;;;;;;;4.50;4.00;;;;;22.57;45.86;101144.25;5058161;28;45341;-50
2021/08/20 03:13:22;;;;;;;;;4.00;2.75;;;;;22.55;45.74;101147.84;5058311;28;45319;-50
2021/08/20 03:15:47;;;;;;;;;2.75;2.75;;;;;22.54;45.90;101154.06;5058326;28;45220;-52
2021/08/20 03:18:12;;;;;;;;;3.00;3.00;;;;;22.54;45.71;101145.28;5057814;28;48005;-52
2021/08/20 03:20:38;;;;;;;;;4.00;3.00;;;;;22.54;45.50;101146.13;5058077;28;45392;-50
2021/08/20 03:23:03;;;;;;;;;6.50;4.00;;;;;22.55;45.89;101145.19;5058109;28;45696;-52
2021/08/20 03:25:29;;;;;;;;;4.25;3.00;;;;;22.56;45.89;101148.69;5057657;28;46080;-51
2021/08/20 03:27:54;;;;;;;;;4.00;4.00;;;;;22.58;45.76;101138.03;5057861;28;45418;-47
2021/08/20 03:30:19;;;;;;;;;4.75;4.75;;;;;22.59;46.00;101129.16;5058203;28;45323;-57
2021/08/20 03:32:45;;;;;;;;;5.00;3.75;;;;;22.60;45.68;101137.00;5058114;28;45415;-56
2021/08/20 03:35:11;;;;;;;;;3.00;3.00;;;;;22.62;45.87;101136.91;5057664;28;46619;-50
2021/08/20 03:37:40;;;;;;;;;1.75;1.00;;;;;22.62;45.97;101140.41;5057758;28;45780;-54
2021/08/20 03:40:06;;;;;;;;;3.00;3.00;;;;;22.63;46.12;101138.63;5057805;28;45402;-54
2021/08/20 03:42:31;;;;;;;;;4.25;4.25;;;;;22.63;45.69;101138.63;5057891;28;45629;-47
2021/08/20 03:44:57;;;;;;;;;3.25;3.25;;;;;22.63;45.74;101141.25;5057557;28;46569;-48
2021/08/20 03:47:22;;;;;;;;;2.75;2.75;;;;;22.64;45.92;101140.31;5057919;28;45368;-49
2021/08/20 03:49:48;;;;;;;;;5.75;4.25;;;;;22.63;45.91;101141.25;5057874;28;45741;-49
2021/08/20 03:52:13;;;;;;;;;3.25;3.25;;;;;22.65;45.84;101142.88;5057867;28;45651;-45
2021/08/20 03:54:38;;;;;;;;;4.25;4.25;;;;;22.64;45.92;101151.72;5057232;28;46569;-46
2021/08/20 03:57:04;;;;;;;;;3.75;3.75;;;;;22.67;45.84;101145.41;5057397;28;45398;-45
2021/08/20 03:59:30;;;;;;;;;4.00;4.00;;;;;22.67;45.88;101148.91;5057427;28;45368;-44
2021/08/20 04:01:56;;;;;;;;;4.00;4.00;;;;;22.69;45.95;101148.81;5057713;28;45561;-46
2021/08/20 04:04:21;;;;;;;;;3.50;3.00;;;;;22.69;46.08;101143.53;5057642;28;46112;-52
2021/08/20 04:06:46;;;;;;;;;2.25;2.25;;;;;22.70;45.75;101154.03;5057367;28;45329;-52
2021/08/20 04:09:12;;;;;;;;;3.00;3.00;;;;;22.71;46.09;101152.22;5057331;28;45389;-56
2021/08/20 04:11:37;;;;;;;;;3.00;3.00;;;;;22.72;45.96;101153.91;5057559;28;45484;-53
2021/08/20 04:14:03;;;;;;;;;3.75;3.75;;;;;22.73;46.29;101160.03;5057089;28;47157;-49
2021/08/20 04:16:32;;;;;;;;;2.75;2.75;;;;;22.75;45.99;101160.81;5057077;28;45214;-47
2021/08/20 04:18:57;;;;;;;;;4.75;3.00;;;;;22.76;46.05;101154.59;5057308;28;45265;-55
2021/08/20 04:21:23;;;;;;;;;2.00;2.00;;;;;22.77;45.98;101164.22;5057725;28;45483;-48
2021/08/20 04:23:48;;;;;;;;;6.00;4.50;;;;;22.79;45.89;101160.53;5056824;28;45402;-56
2021/08/20 04:26:14;;;;;;;;;5.00;4.00;;;;;22.82;46.00;101164.81;5057211;28;45380;-56
2021/08/20 04:28:40;;;;;;;;;3.00;2.50;;;;;22.84;46.01;101168.19;5057130;28;45403;-54
2021/08/20 04:31:05;;;;;;;;;3.50;3.00;;;;;22.84;46.01;101171.69;5057322;28;45518;-56
2021/08/20 04:33:31;;;;;;;;;3.25;3.25;;;;;22.85;46.19;101170.75;5056822;28;45401;-50
2021/08/20 04:35:56;;;;;;;;;5.00;4.00;;;;;22.88;46.17;101168.84;5056746;28;45349;-55
2021/08/20 04:38:21;;;;;;;;;5.00;3.25;;;;;22.89;46.38;101170.53;5056350;28;45461;-53
2021/08/20 04:40:47;;;;;;;;;5.25;4.00;;;;;22.89;46.25;101170.53;5057024;28;45351;-52
2021/08/20 04:43:12;;;;;;;;;4.00;4.00;;;;;22.89;46.24;101167.91;5056574;28;45415;-60
2021/08/20 04:45:37;;;;;;;;;2.25;2.25;;;;;22.89;46.40;101171.41;5056715;28;45412;-56
2021/08/20 04:48:03;;;;;;;;;4.00;4.00;;;;;22.90;46.36;101166.97;5056752;28;45383;-58
2021/08/20 04:50:29;;;;;;;;;3.75;3.75;;;;;22.90;46.29;101174.88;5057018;28;45391;-55
2021/08/20 04:52:56;;;;;;;;;5.25;3.50;;;;;22.90;46.15;101172.25;5056723;28;45331;-58
2021/08/20 04:55:21;;;;;;;;;4.25;3.00;;;;;22.90;46.25;101172.25;5056958;28;45241;-53
2021/08/20 04:57:47;;;;;;;;;3.00;3.00;;;;;22.88;46.06;101176.78;5056827;28;45421;-54
2021/08/20 05:00:12;;;;;;;;;3.00;3.00;;;;;22.91;46.11;101179.22;5056371;28;45537;-57
2021/08/20 05:02:38;;;;;;;;;3.25;3.25;;;;;22.90;46.20;101178.41;5056366;28;45262;-53
2021/08/20 05:05:07;;;;;;;;;5.00;5.00;;;;;22.92;46.27;101183.59;5056413;28;45249;-57
2021/08/20 05:07:36;;;;;;;;;6.00;3.00;;;;;22.90;46.07;101175.75;5056402;28;45414;-53
2021/08/20 05:10:09;;;;;;;;;6.00;4.25;;;;;22.91;46.14;101188.03;5056502;28;45474;-55
2021/08/20 05:12:38;;;;;;;;;2.75;2.75;;;;;22.90;46.07;101186.31;5056069;28;46920;-54
2021/08/20 05:15:05;;;;;;;;;5.25;5.25;;;;;22.90;46.33;101180.19;5056290;28;45519;-56
2021/08/20 05:17:31;;;;;;;;;4.25;4.25;;;;;22.90;46.08;101180.19;5056344;28;45398;-57
2021/08/20 05:19:57;;;;;;;;;3.50;3.50;;;;;22.90;46.35;101174.88;5056727;28;45695;-56
2021/08/20 05:22:22;;;;;;;;;5.00;5.00;;;;;22.90;46.39;101186.31;5056368;28;46952;-53
2021/08/20 05:24:47;;;;;;;;;5.50;5.00;;;;;22.92;46.22;101188.88;5056198;28;45576;-54
2021/08/20 05:27:12;;;;;;;;;3.75;3.75;;;;;22.92;46.40;101186.22;5056309;28;45350;-57
2021/08/20 05:29:38;;;;;;;;;5.75;5.75;;;;;22.92;46.08;101186.22;5056261;28;45472;-57
2021/08/20 05:32:03;;;;;;;;;4.25;3.25;;;;;22.90;46.28;101188.09;5056035;28;46158;-56
2021/08/20 05:34:29;;;;;;;;;5.50;3.75;;;;;22.87;46.42;101189.16;5055869;28;45613;-54
2021/08/20 05:36:54;;;;;;;;;4.00;4.00;;;;;22.82;45.87;101192.06;5056585;28;45660;-52
2021/08/20 05:39:20;;;;;;;;;6.25;4.75;;;;;22.72;46.24;101190.91;5056369;28;45587;-53
2021/08/20 05:41:45;;;;;;;;;6.25;5.50;;;;;22.63;46.56;101186.19;5055949;28;46150;-55
2021/08/20 05:44:10;;;;;;;;;2.00;1.00;;;;;22.52;46.58;101187.66;5054678;28;45330;-54
2021/08/20 05:46:36;;;;;;;;;5.00;5.00;;;;;22.43;46.48;101196.13;5055960;28;45269;-55
2021/08/20 05:49:05;;;;;;;;;4.75;4.75;;;;;22.36;46.66;101200.00;5056115;28;45249;-53
2021/08/20 05:51:31;;;;;;;;;5.00;4.25;;;;;22.32;46.74;101198.50;5059360;28;47259;-51
2021/08/20 05:53:56;;;;;;;;;4.00;4.00;;;;;22.27;46.90;101197.91;5059738;28;45357;-54
2021/08/20 05:56:22;;;;;;;;;6.00;4.75;;;;;22.30;46.83;101200.38;5059496;28;45357;-53
2021/08/20 05:58:48;;;;;;;;;4.25;4.25;;;;;22.30;47.29;101195.94;5059413;28;45329;-56
2021/08/20 06:01:14;;;;;;;;;5.25;5.00;;;;;22.27;47.17;101196.09;5059111;28;46042;-53
2021/08/20 06:03:40;;;;;;;;;4.50;4.50;;;;;22.21;47.34;101197.28;5059199;28;45458;-54
2021/08/20 06:06:10;;;;;;;;;5.25;3.75;;;;;22.16;47.62;101194.06;5059309;28;45249;-52
2021/08/20 06:08:36;;;;;;;;;8.50;5.75;;;;;22.11;47.76;101201.38;5059475;28;45348;-48
2021/08/20 06:11:01;;;;;;;;;6.25;4.75;;;;;22.06;47.77;101198.19;5040924;28;47108;-51
2021/08/20 06:13:27;;;;;;;;;4.75;4.75;;;;;21.99;47.80;101196.81;5059418;28;45311;-54
2021/08/20 06:15:52;;;;;;;;;5.00;3.50;;;;;21.97;47.77;101201.34;5059206;28;45417;-55
2021/08/20 06:18:17;;;;;;;;;5.75;5.75;;;;;21.94;47.82;101202.34;5059229;28;45557;-56
2021/08/20 06:20:42;;;;;;;;;5.00;5.00;;;;;21.90;47.80;101199.03;5058874;28;46069;-56
2021/08/20 06:23:08;;;;;;;;;8.00;5.75;;;;;21.90;48.01;101196.38;5058840;28;45410;-56
2021/08/20 06:25:33;;;;;;;;;7.25;6.00;;;;;21.90;47.97;101201.66;5059090;28;45336;-54
2021/08/20 06:27:58;;;;;;;;;8.00;6.00;;;;;21.90;48.50;101204.31;5059604;28;45581;-56
2021/08/20 06:30:24;;;;;;;;;7.00;6.00;;;;;21.90;48.32;101203.47;5057791;28;45330;-55
2021/08/20 06:32:50;;;;;;;;;7.25;7.00;;;;;21.89;48.07;101202.59;5058737;28;45253;-51
2021/08/20 06:35:15;;;;;;;;;6.00;5.50;;;;;21.87;48.73;101200.97;5040848;28;45284;-53
2021/08/20 06:37:41;;;;;;;;;6.25;6.00;;;;;21.86;48.60;101199.28;5059069;28;45508;-49
2021/08/20 06:40:06;;;;;;;;;3.75;2.25;;;;;21.86;48.54;101204.56;5058703;28;45492;-54
2021/08/20 06:42:32;;;;;;;;;7.00;6.25;;;;;21.83;48.59;101197.66;5058546;28;45375;-53
2021/08/20 06:44:57;;;;;;;;;7.00;5.50;;;;;21.83;48.63;101202.94;5059077;28;45315;-55
2021/08/20 06:47:22;;;;;;;;;6.50;5.50;;;;;21.82;48.55;101203.88;5058861;28;45224;-57
2021/08/20 06:49:50;;;;;;;;;6.25;6.25;;;;;21.81;48.47;101202.19;5058333;28;46611;-54
2021/08/20 06:52:16;;;;;;;;;7.75;7.00;;;;;21.81;49.01;101203.97;5058409;28;45444;-56
2021/08/20 06:54:41;;;;;;;;;5.75;5.50;;;;;21.81;48.85;101198.69;5040650;28;45456;-53
2021/08/20 06:57:06;;;;;;;;;7.50;6.75;;;;;21.83;48.79;101207.38;5058690;28;45394;-51
2021/08/20 06:59:32;;;;;;;;;5.50;5.50;;;;;21.82;48.88;101206.50;5058480;28;45414;-51
2021/08/20 07:01:57;;;;;;;;;5.75;5.75;;;;;21.81;48.73;101212.72;5057957;28;45369;-53
2021/08/20 07:04:22;;;;;;;;;5.75;5.75;;;;;21.84;48.96;101207.28;5058557;28;45450;-53
2021/08/20 07:06:48;;;;;;;;;8.75;5.75;;;;;21.91;48.60;101211.28;5058459;28;45400;-56
2021/08/20 07:09:13;;;;;;;;;5.25;5.25;;;;;22.01;48.81;101213.41;5058011;28;45502;-56
2021/08/20 07:11:38;;;;;;;;;5.50;5.25;;;;;22.04;48.78;101206.19;5057862;28;45318;-56
2021/08/20 07:14:04;;;;;;;;;8.25;6.50;;;;;22.15;48.32;101213.50;5058189;28;45240;-54
2021/08/20 07:16:29;;;;;;;;;5.50;5.25;;;;;22.21;48.47;101218.41;5058766;28;45629;-50
2021/08/20 07:18:54;;;;;;;;;8.00;8.00;;;;;22.26;48.33;101215.53;5057925;28;46939;-55
2021/08/20 07:21:20;;;;;;;;;8.00;7.00;;;;;22.30;48.09;101222.34;5058126;28;45415;-54
2021/08/20 07:23:45;;;;;;;;;7.00;7.00;;;;;22.34;48.21;101220.34;5058103;28;45255;-53
2021/08/20 07:26:11;;;;;;;;;7.25;6.25;;;;;22.35;47.90;101215.00;5058207;28;45221;-51
2021/08/20 07:28:36;;;;;;;;;6.75;6.00;;;;;22.33;48.07;101221.28;5057690;28;45240;-51
2021/08/20 07:31:02;;;;;;;;;7.50;6.00;;;;;22.37;48.26;101222.84;5058094;28;45351;-52
2021/08/20 07:33:28;;;;;;;;;5.75;5.75;;;;;22.38;47.73;101224.53;5057801;28;45225;-52
2021/08/20 07:35:54;;;;;;;;;7.00;6.00;;;;;22.40;47.91;101222.66;5057987;28;45441;-50
2021/08/20 07:38:19;;;;;;;;;7.75;6.00;;;;;22.41;48.00;101224.41;5057523;28;46394;-51
2021/08/20 07:40:44;;;;;;;;;5.50;5.00;;;;;22.43;47.86;101225.19;5057516;28;45406;-49
2021/08/20 07:43:10;;;;;;;;;6.25;5.50;;;;;22.43;48.18;101233.09;5057822;28;45499;-50
2021/08/20 07:45:35;;;;;;;;;5.75;5.75;;;;;22.46;47.85;101232.06;5057848;28;45383;-55
2021/08/20 07:48:01;;;;;;;;;6.50;5.75;;;;;22.49;47.85;101238.00;5057826;28;46641;-48
2021/08/20 07:50:26;;;;;;;;;7.75;7.25;;;;;22.51;47.68;101238.78;5057520;28;45319;-47
2021/08/20 07:52:52;;;;;;;;;7.25;7.00;;;;;22.51;47.74;101230.84;5057723;28;45292;-46
2021/08/20 07:55:17;;;;;;;;;5.00;4.75;;;;;22.55;47.58;101240.28;5057642;28;45578;-51
2021/08/20 07:57:44;;;;;;;;;7.50;6.25;;;;;22.57;48.06;101234.94;5057368;28;46316;-52
2021/08/20 08:00:10;;;;;;;;;5.25;5.00;;;;;22.59;47.45;101237.47;5057092;28;45419;-51
2021/08/20 08:02:36;;;;;;;;;9.50;8.00;;;;;22.59;47.77;101238.34;5057354;28;45233;-52
2021/08/20 08:05:01;;;;;;;;;5.25;5.00;;;;;22.59;47.60;101241.00;5057847;28;45362;-53
2021/08/20 08:07:26;;;;;;;;;7.00;6.00;;;;;22.60;47.60;101244.47;5057309;28;45426;-51
2021/08/20 08:10:11;;;;;;;;;6.75;6.75;;;;;22.63;47.69;101244.31;5057194;28;45643;-47
2021/08/20 08:12:37;;;;;;;;;6.75;6.00;;;;;22.63;47.68;101247.78;5056355;28;45399;-55
2021/08/20 08:15:07;;;;;;;;;7.00;6.75;;;;;22.67;47.65;101251.97;5056406;28;45648;-51
2021/08/20 08:17:32;;;;;;;;;11.25;7.25;;;;;22.67;47.77;101245.81;5057388;28;46496;-48
2021/08/20 08:19:58;;;;;;;;;7.00;6.50;;;;;22.67;47.61;101251.09;5057165;28;45368;-48
2021/08/20 08:22:23;;;;;;;;;7.00;7.00;;;;;22.65;47.47;101251.19;5057169;28;45339;-48
2021/08/20 08:24:48;;;;;;;;;9.75;7.50;;;;;22.63;47.77;101244.31;5057414;28;45609;-53
2021/08/20 08:27:14;;;;;;;;;6.00;6.00;;;;;22.64;47.76;101248.66;5056958;28;45327;-49
2021/08/20 08:29:39;;;;;;;;;7.00;7.00;;;;;22.63;47.81;101258.34;5056757;28;45336;-49
2021/08/20 08:32:05;;;;;;;;;8.75;7.00;;;;;22.62;47.91;101258.44;5057421;28;45316;-54
2021/08/20 08:34:30;;;;;;;;;8.00;6.25;;;;;22.63;47.93;101262.78;5057125;28;45763;-55
2021/08/20 08:36:55;;;;;;;;;9.25;7.50;;;;;22.63;47.84;101258.34;5056516;28;47746;-56
2021/08/20 08:39:21;;;;;;;;;11.50;8.00;;;;;22.64;47.99;101267.13;5056882;28;45391;-56
2021/08/20 08:41:46;;;;;;;;;7.00;7.00;;;;;22.64;48.03;101261.84;5056972;28;45321;-54
2021/08/20 08:44:11;;;;;;;;;9.00;7.00;;;;;22.64;47.82;101273.25;5056959;28;45227;-55
2021/08/20 08:46:37;;;;;;;;;7.25;6.00;;;;;22.62;48.11;101272.50;5056812;28;45954;-55
2021/08/20 08:49:04;;;;;;;;;8.75;7.00;;;;;22.61;48.34;101268.16;5039131;28;45391;-55
2021/08/20 08:51:30;;;;;;;;;9.00;9.00;;;;;22.57;47.93;101264.00;5056858;28;45307;-52
2021/08/20 08:53:55;;;;;;;;;10.25;8.25;;;;;22.57;48.27;101271.06;5056822;28;45427;-49
2021/08/20 08:56:20;;;;;;;;;9.50;8.25;;;;;22.58;48.14;101272.75;5056393;28;46274;-48
2021/08/20 08:58:46;;;;;;;;;8.25;8.25;;;;;22.58;48.03;101272.75;5056254;28;45397;-50
2021/08/20 09:01:29;;;;;;;;;7.00;7.00;;;;;22.58;48.17;101270.13;5056496;28;45435;-48
2021/08/20 09:04:11;;;;;;;;;9.50;8.00;;;;;22.58;48.23;101272.75;5056666;28;45474;-49
2021/08/20 09:06:49;;;;;;;;;12.25;9.50;;;;;22.59;48.11;101267.41;5056478;28;46186;-50
2021/08/20 09:09:17;;;;;;;;;11.50;9.25;;;;;22.63;48.00;101270.72;5056234;28;45866;-54
2021/08/20 09:11:43;;;;;;;;;9.00;8.00;;;;;22.64;48.13;101272.41;5056560;28;45347;-46
2021/08/20 09:14:10;;;;;;;;;8.00;7.50;;;;;22.65;47.85;101274.97;5056993;28;45774;-47
2021/08/20 09:16:35;;;;;;;;;10.25;7.25;;;;;22.65;47.72;101268.84;5056547;28;45536;-51
2021/08/20 09:19:09;;;;;;;;;8.25;7.25;;;;;22.66;48.01;101267.88;5056165;28;45300;-52
2021/08/20 09:21:34;;;;;;;;;12.25;8.75;;;;;22.69;48.00;101270.34;5056608;28;45761;-49
2021/08/20 09:24:00;;;;;;;;;5.00;5.00;;;;;22.70;47.97;101272.06;5057791;28;45637;-52
2021/08/20 09:26:25;;;;;;;;;9.50;7.25;;;;;22.73;47.89;101263.97;5059719;28;46022;-50
2021/08/20 09:28:50;;;;;;;;;8.75;8.00;;;;;22.75;47.88;101270.00;5059599;28;45268;-50
2021/08/20 09:31:16;;;;;;;;;8.75;8.75;;;;;22.75;47.61;101262.09;5059955;28;45215;-49
2021/08/20 09:33:44;;;;;;;;;7.75;7.00;;;;;22.76;47.81;101255.88;5059862;28;45503;-53
2021/08/20 09:36:12;;;;;;;;;4.50;4.50;;;;;22.77;47.83;101256.69;5059744;28;45556;-49
2021/08/20 09:38:40;;;;;;;;;5.75;5.75;;;;;22.78;47.63;101253.97;5059923;28;45897;-51
2021/08/20 09:44:06;;;;;;;;;7.75;7.75;;;;;22.82;47.58;101257.28;5057523;28;45443;-53
2021/08/20 09:46:42;;;;;;;;;7.00;7.00;;;;;22.83;47.75;101259.84;5059265;28;47549;-51
2021/08/20 09:49:09;;;;;;;;;9.00;7.25;;;;;22.84;47.55;101265.97;5059515;28;45407;-50
2021/08/20 09:51:43;;;;;;;;;7.00;5.00;;;;;22.85;47.53;101265.91;5059112;28;45191;-45
2021/08/20 09:54:11;;;;;;;;;8.25;5.75;;;;;22.87;47.49;101262.31;5059787;28;45261;-48
2021/08/20 09:56:37;;;;;;;;;8.25;6.25;;;;;22.88;47.60;101266.63;5059597;28;46282;-47
2021/08/20 09:59:05;;;;;;;;;8.00;6.75;;;;;22.90;47.35;101264.75;5059159;28;45404;-49
2021/08/20 10:01:34;;;;;;;;;7.00;6.00;;;;;22.92;47.44;101271.69;5059463;28;45264;-47
2021/08/20 10:04:03;;;;;;;;;5.50;5.50;;;;;22.94;47.16;101263.66;5059561;28;45279;-48
2021/08/20 10:06:34;;;;;;;;;5.75;4.75;;;;;22.96;47.39;101272.34;5059072;28;45533;-47
2021/08/20 10:09:04;;;;;;;;;7.50;6.50;;;;;22.98;47.31;101270.47;5059084;28;45655;-50
2021/08/20 10:11:33;;;;;;;;;9.00;6.50;;;;;22.97;47.53;101268.75;5059095;28;45446;-48
2021/08/20 10:14:01;;;;;;;;;6.25;5.00;;;;;22.98;47.42;101262.53;5059196;28;45308;-48
2021/08/20 10:16:29;;;;;;;;;5.00;4.00;;;;;22.99;47.08;101266.84;5058908;28;46339;-48
2021/08/20 10:18:55;;;;;;;;;7.00;5.00;;;;;23.02;47.48;101274.59;5058977;28;45497;-49
2021/08/20 10:21:20;;;;;;;;;9.50;6.75;;;;;23.03;47.26;101271.03;5059044;28;45354;-48
2021/08/20 10:23:47;;;;;;;;;10.25;8.00;;;;;23.04;47.10;101269.25;5059353;28;45347;-51
2021/08/20 10:26:14;;;;;;;;;6.50;5.50;;;;;23.05;47.23;101276.22;5058970;28;46165;-48
2021/08/20 10:28:39;;;;;;;;;5.50;5.00;;;;;23.05;47.03;101268.28;5059226;28;45443;-48
2021/08/20 10:31:05;;;;;;;;;7.25;5.50;;;;;23.06;47.09;101272.63;5059047;28;45521;-49
2021/08/20 10:33:32;;;;;;;;;6.00;6.00;;;;;23.08;46.91;101278.69;5059058;28;45248;-47
2021/08/20 10:36:00;;;;;;;;;7.25;5.75;;;;;23.08;47.09;101279.53;5057780;28;45510;-47
2021/08/20 10:38:33;;;;;;;;;6.00;6.00;;;;;23.10;46.93;101277.63;5058578;28;45320;-48
2021/08/20 10:41:04;;;;;;;;;7.00;7.00;;;;;23.12;46.85;101273.13;5058789;28;45221;-48
2021/08/20 10:43:50;;;;;;;;;6.25;5.75;;;;;23.14;46.68;101271.25;5040792;28;45279;-47
2021/08/20 10:46:50;;;;;;;;;4.00;4.00;;;;;23.15;46.91;101270.31;5058465;28;46327;-49
2021/08/20 10:49:21;;;;;;;;;4.50;4.50;;;;;23.17;46.85;101272.84;5025639;28;45831;-51
2021/08/20 10:51:49;;;;;;;;;5.50;5.50;;;;;23.20;46.89;101267.41;5058477;28;45292;-48
2021/08/20 10:54:16;;;;;;;;;5.25;4.25;;;;;23.21;46.63;101260.31;5058693;28;45622;-48
2021/08/20 10:56:41;;;;;;;;;5.50;4.50;;;;;23.23;46.76;101269.88;5058619;28;46681;-47
2021/08/20 10:59:07;;;;;;;;;6.75;5.25;;;;;23.23;46.11;101266.38;5058292;28;45345;-47
2021/08/20 11:01:32;;;;;;;;;5.25;4.00;;;;;23.25;46.34;101261.84;5058392;28;45454;-47
2021/08/20 11:03:59;;;;;;;;;9.50;6.50;;;;;23.26;46.54;101258.25;5058416;28;45661;-48
2021/08/20 11:06:51;;;;;;;;;6.75;4.00;;;;;23.28;46.20;101264.31;5058217;28;46262;-48
2021/08/20 11:09:28;;;;;;;;;5.50;4.75;;;;;23.29;46.15;101266.00;5058221;28;45429;-48
2021/08/20 11:11:53;;;;;;;;;4.00;4.00;;;;;23.30;45.99;101265.06;5040159;28;45405;-48
2021/08/20 11:14:23;;;;;;;;;4.00;4.00;;;;;23.31;45.72;101266.78;5058365;28;45367;-52
2021/08/20 11:16:48;;;;;;;;;6.00;4.75;;;;;23.32;45.59;101257.88;5058037;28;45474;-48
2021/08/20 11:19:45;;;;;;;;;3.75;3.75;;;;;23.34;45.23;101266.56;5058303;28;45331;-50
2021/08/20 11:22:22;;;;;;;;;4.00;4.00;;;;;23.36;45.50;101261.19;5058497;28;45430;-46
2021/08/20 11:25:08;;;;;;;;;4.00;4.00;;;;;23.36;45.51;101259.41;5058065;28;45340;-46